SBSP/CGH METAR and TAF weather

Enter ICAO airport designator
Station Type Date Time Source
SBSP METAR 2019/05/20 11:00 UTC NOAA

SBSP 201100Z 03004KT 6000 BKN011 18/16 Q1020


Station Type Date Time Source
SBSP Decoded METAR 2019/05/20 11:00 UTC NOAA

Sao Paulo/Congonhas Aeroporto, Brazil (SBSP) 23-37S 046-39W 802M
May 20, 2019 - 07:00 AM EDT / 2019.05.20 1100 UTC
Wind: from the NNE (030 degrees) at 5 MPH (4 KT):0
Visibility: 3 mile(s):0
Sky conditions: mostly cloudy
Temperature: 64 F (18 C)
Dew Point: 60 F (16 C)
Relative Humidity: 88%
Pressure (altimeter): 30.12 in. Hg (1020 hPa)
ob: SBSP 201100Z 03004KT 6000 BKN011 18/16 Q1020
cycle: 11

Station Type Date Time Source
SBSP TAF 2019/05/20 12:18 UTC NOAA

TAF SBSP 200732Z 2012/2112 03005KT 8000 FEW025 TX24/2017Z TN17/2108Z
BECMG 2012/2014 01005KT FEW025
BECMG 2014/2016 33005KT SCT030
BECMG 2019/2021 15007KT BKN012
BECMG 2021/2023 12003KT
BECMG 2023/2101 09003KT FEW007
BECMG 2102/2104 00000KT BKN009
RMK PHG

Example: see airport list